»·PEaware :: N52LM 67L-L77

N52LM :: 67L-L77

FLIGHT INFORMATION

Flight Status: Arrived
Operator: Privately registered:
United States
More flights under this callsign
Pilot: Laura M. (2908)
Aircraft: CESSNA 510 CITATION MUSTANG
(C510)
More flights by this aircraft type
Origin: 67L Mesquite
United States
Destination: L77 Chiriaco Summit
United States
More flights between these airports :: More routes between these airports
Route: GFS
File this flight plan on PilotEdge
Remarks: ZLA Alphabet #33
Altitude:
(Current/Filed)
16,500ft
Speed:
(Current/Filed)
240kts
Departed: 23-Nov-22 09:59 PM
Arrived: 23-Nov-22 10:49 PM
Distance/Time
Traveled:
0nm/0:50
Distance/Time
To Go:
Arrived

Flight Plot

Page will automatically refresh every two minutes.

Flight plan parsing failed; only flown route is shown


Map Options




Map Legend


Flown Route
Filed Route
Departure Airport
Arrival Airport
Navaid (VOR, NDB)
Fix

Horizontal Profiles

Position Reports

Time Latitude Longitude Heading Altitude Ground
Speed
23-Nov-22 21:42 36.832445 -114.057798 296 1979ft 0kts
23-Nov-22 21:43 36.832445 -114.057798 296 1979ft 0kts
23-Nov-22 21:44 36.832445 -114.057798 296 1979ft 0kts
23-Nov-22 21:45 36.832445 -114.057798 296 1979ft 0kts
23-Nov-22 21:46 36.832445 -114.057798 296 1979ft 0kts
23-Nov-22 21:47 36.832445 -114.057798 296 1979ft 0kts
23-Nov-22 21:48 36.832445 -114.057798 296 1979ft 0kts
23-Nov-22 21:49 36.832445 -114.057798 296 1979ft 0kts
23-Nov-22 21:50 36.832445 -114.057798 296 1979ft 0kts
23-Nov-22 21:51 36.832445 -114.057798 296 1979ft 0kts
23-Nov-22 21:52 36.829894 -114.059103 209 1980ft 18kts
23-Nov-22 21:53 36.827368 -114.060726 141 1980ft 2kts
23-Nov-22 21:54 36.827357 -114.060713 135 1980ft 0kts
23-Nov-22 21:55 36.827357 -114.060713 135 1980ft 0kts
23-Nov-22 21:56 36.827357 -114.060713 135 1980ft 0kts
23-Nov-22 21:57 36.827357 -114.060713 135 1980ft 0kts
23-Nov-22 21:58 36.839592 -114.051105 31 2314ft 151kts
23-Nov-22 21:59 36.874798 -114.057810 267 5925ft 198kts
23-Nov-22 22:00 36.831554 -114.083211 186 9831ft 189kts
23-Nov-22 22:01 36.774350 -114.096223 205 12027ft 238kts
23-Nov-22 22:02 36.716065 -114.134846 206 14754ft 242kts
23-Nov-22 22:03 36.655184 -114.175680 206 16517ft 275kts
23-Nov-22 22:04 36.582867 -114.224143 207 16491ft 303kts
23-Nov-22 22:05 36.508860 -114.273689 207 16470ft 301kts
23-Nov-22 22:06 36.435332 -114.322789 207 16461ft 300kts
23-Nov-22 22:07 36.361834 -114.371755 207 16461ft 300kts
23-Nov-22 22:08 36.288628 -114.420426 207 16463ft 299kts
23-Nov-22 22:09 36.215396 -114.469011 207 16463ft 299kts
23-Nov-22 22:10 36.142000 -114.517596 207 16462ft 299kts
23-Nov-22 22:11 36.068601 -114.566084 207 16462ft 299kts
23-Nov-22 22:12 35.995058 -114.614560 207 16462ft 299kts
23-Nov-22 22:13 35.921868 -114.662710 206 16461ft 299kts
23-Nov-22 22:14 35.848179 -114.711071 206 16464ft 299kts
23-Nov-22 22:15 35.774696 -114.759200 206 16464ft 300kts
23-Nov-22 22:16 35.701299 -114.807170 206 16463ft 300kts
23-Nov-22 22:17 35.627800 -114.855105 206 16455ft 300kts
23-Nov-22 22:18 35.554006 -114.903140 206 16451ft 300kts
23-Nov-22 22:19 35.480667 -114.950770 206 16448ft 300kts
23-Nov-22 22:20 35.406867 -114.998619 206 16431ft 300kts
23-Nov-22 22:21 35.332749 -115.046560 206 16426ft 301kts
23-Nov-22 22:22 35.258823 -115.094278 206 16419ft 302kts
23-Nov-22 22:23 35.183994 -115.142457 206 16399ft 303kts
23-Nov-22 22:24 35.107455 -115.183402 192 16413ft 302kts
23-Nov-22 22:25 35.025978 -115.208092 192 16417ft 302kts
23-Nov-22 22:26 34.944556 -115.232666 192 16416ft 301kts
23-Nov-22 22:27 34.863664 -115.256895 192 16419ft 297kts
23-Nov-22 22:28 34.784516 -115.280536 192 16602ft 292kts
23-Nov-22 22:29 34.705217 -115.304185 192 16602ft 294kts
23-Nov-22 22:30 34.625901 -115.327816 192 16621ft 294kts
23-Nov-22 22:31 34.546478 -115.351446 192 16647ft 294kts
23-Nov-22 22:32 34.467194 -115.374972 192 16653ft 294kts
23-Nov-22 22:33 34.387524 -115.398581 192 16660ft 294kts
23-Nov-22 22:34 34.307997 -115.422106 192 16667ft 294kts
23-Nov-22 22:35 34.228737 -115.445494 192 16673ft 294kts
23-Nov-22 22:36 34.153842 -115.467657 191 16006ft 240kts
23-Nov-22 22:37 34.086150 -115.487452 192 13213ft 261kts
23-Nov-22 22:38 34.015529 -115.508192 192 10323ft 265kts
23-Nov-22 22:39 33.945055 -115.528611 194 7423ft 258kts
23-Nov-22 22:40 33.879468 -115.547947 194 6024ft 214kts
23-Nov-22 22:41 33.823591 -115.564343 194 6035ft 202kts
23-Nov-22 22:42 33.770609 -115.579805 194 5945ft 161kts
23-Nov-22 22:43 33.731282 -115.591223 194 5100ft 138kts
23-Nov-22 22:44 33.693265 -115.602274 194 3345ft 143kts
23-Nov-22 22:45 33.677933 -115.633080 256 2858ft 113kts
23-Nov-22 22:46 33.671770 -115.665644 258 2348ft 107kts
23-Nov-22 22:47 33.666919 -115.697413 258 1793ft 91kts
23-Nov-22 22:48 33.664149 -115.714469 258 1695ft 26kts
23-Nov-22 22:49 33.662344 -115.719690 168 1695ft 20kts
23-Nov-22 22:50 33.661939 -115.718746 263 1695ft 0kts
23-Nov-22 22:51 33.661939 -115.718746 264 1695ft 0kts
23-Nov-22 22:52 33.661939 -115.718746 263 1695ft 0kts
23-Nov-22 22:53 36.832445 -114.057798 297 1979ft 0kts

Navigation Log

Ident Type
Flight plan parsing failed, navigation log unavailable